Portada
METAR-TAF:

METAR-TAF

Aeropuertos :

Ad Dawadimi, Arabia Saudita

latitud: 24-26-59N, longitud: 044-07-16E, altitud: 922 m

Observación

El informe se hizo hace 43 minutos, a las 16:00 UTC
Viento 10 kt del noreste
Temperatura 21°C
Humedad 20%
Presión 1018 hPa
Visibilidad 10 km o más
sin nubes por debajo de 1500 m y sin presencia de cumulonimbus.

METAR: OEDM 021600Z 05010KT CAVOK 21/M03 Q1018

Hora: 19:43 (16:43 UTC)

Pronóstico

El informe se hizo hace 11 horas y 43 minutos, a las 05:00 UTC
Pronóstico válido del 02 a las 06 UTC al 02 a las 20 UTC
Viento 10 kt del este-noreste
Visibilidad: 7000 m
Nubes dispersas a una altura de 4000 ft

TAF: OEDM 020500Z 0206/0220 07010KT 7000 SCT040

Observaciones y pronósticos meteorológicos de más de 4000 aeropuertos (mensajes METAR y TAF).

Los puntos amarillos y rojos representan las estaciones disponibles.

Ponga el ratón en el punto deseado para ver el nombre de la estación.

Haga clic para ver las observaciones y los pronósticos meteorológicos.

Para cambiar el mapa : haga clic en los botones verdes con una cruz de color negro para hacer un zoom, en el botón verde con un guión para alejar o en las flechas verdes para mapas adyacentes.


METAR-TAF: